الصفحة الرئيسية
METAR-TAF:

METAR-TAF

مطار :

Seldovia, ألاسكا, الولايات المتحدة

دائرة عرض: 59-27N, خط طول: 151-42W, ارتفاع: 9 متر

مراقبة الطقس الحالي

تاريخ ووقت الإصدار 30 دقيقة قبل الساعة 17:13UTC
رياح هادئة
درجة الحرارة -1°درجة مئوية
الرطوبة 86%
ضغط 1013 hPa
الرؤية: 4.0 كم
غيوم قليلة على ارتفاع 800 قدم
غيوم مفككة على ارتفاع 3800 قدم
ملبد بالغيوم على ارتفاع 4800 قدم
ثلوج خفيفة, غشاء

METAR: PASO 041713Z AUTO 00000KT 2 1/2SM -SN BR FEW008 BKN038 OVC048 M01/M03 A2990 RMK AO2 P0000 T10111033 TSNO

زمن: 08:43 (17:43 UTC)


TAF: مفقودة

أرصاد الطقس والتوقعات من أكثر من 4000 مطار (تقارير الطقس للمطار METAR والتنبؤ بالطقس بالمطارTAF).

المحطات المتاحة هي النقط الصفراء والحمراء على الخريطة.

حرك المؤشر فوق النقطة لمعرفة اسم المحطة.

ثم انقر لمعرفة أرصاد وتوقعات الطقس.

لتغيير الخارطة: اضغط على الأزرار الخضراء مع رمز الصليب الأسود للتكبير. على الزر الأخضر مع شرطة للتصغير، أو على الأسهم الخضراء للخرائط المجاورة.


METAR-TAF: